Аэропорт: Курумоч. Самара

ICAO: UWWW

METAR:
2018/11/19 10:00
UWWW 191000Z 29004MPS 260V320 9999 BKN017 01/M03 Q1025 R33/CLRD60 NOSIG RMK QFE758/1010
METAR:
2018/11/19 09:21
TAF UWWW 190801Z 1909/2009 28003G09MPS 9999 BKN011 TX00/1910Z TNM02/2003Z 
      TEMPO 1910/1915 1000 SHSNRA BR BKN004 BKN007CB 
     FM191500 31003G08MPS 3100 -SN BR OVC007 
      TEMPO 1915/2009 0500 FZFG VV003